Time;durP1;ratioP1;P1;durP2;ratioP2;P2;SDS_P1;SDS_P2;PMS_P1;PMS_P2;Temp;Humidity;BMP_temperature;BMP_pressure;BME280_temperature;BME280_humidity;BME280_pressure;Samples;Min_cycle;Max_cycle;Signal;HPM_P1;HPM_P2
2023/01/01 00:01:16;;;;;;;116.17;49.03;;;;;;;9.19;100.00;96674.44;5036890;28;20248;-73
2023/01/01 00:03:43;;;;;;;85.90;36.70;;;;;;;9.10;100.00;96670.94;5037450;28;20230;-72
2023/01/01 00:06:11;;;;;;;101.93;45.50;;;;;;;9.07;100.00;96678.31;5036861;28;20205;-72
2023/01/01 00:08:38;;;;;;;140.70;56.70;;;;;;;9.19;100.00;96682.34;5038058;28;21275;-73
2023/01/01 00:11:06;;;;;;;101.17;43.97;;;;;;;9.16;100.00;96687.88;5038065;28;20604;-71
2023/01/01 00:13:33;;;;;;;99.90;41.30;;;;;;;9.10;100.00;96688.53;5037791;28;20228;-72
2023/01/01 00:16:04;;;;;;;85.53;37.23;;;;;;;9.11;100.00;96690.16;5038134;28;20201;-70
2023/01/01 00:18:32;;;;;;;73.97;31.90;;;;;;;9.07;100.00;96694.09;5038362;28;20201;-71
2023/01/01 00:21:03;;;;;;;75.80;30.47;;;;;;;9.00;100.00;96692.22;5038128;28;20228;-69
2023/01/01 00:23:29;;;;;;;124.73;46.37;;;;;;;8.96;100.00;96702.25;5037374;28;20225;-71
2023/01/01 00:25:56;;;;;;;125.63;48.63;;;;;;;8.95;100.00;96705.84;5038000;28;20236;-70
2023/01/01 00:28:22;;;;;;;89.07;37.80;;;;;;;8.97;100.00;96697.81;5038078;28;20205;-69
2023/01/01 00:30:49;;;;;;;80.13;33.33;;;;;;;8.88;100.00;96699.56;5038398;28;20229;-70
2023/01/01 00:33:15;;;;;;;87.47;35.60;;;;;;;8.81;100.00;96703.81;5038270;28;20205;-71
2023/01/01 00:35:43;;;;;;;126.90;48.80;;;;;;;8.95;100.00;96695.34;5038345;28;20205;-71
2023/01/01 00:38:09;;;;;;;107.77;44.73;;;;;;;8.93;100.00;96692.03;5038577;28;20209;-70
2023/01/01 00:40:36;;;;;;;137.10;53.17;;;;;;;9.05;100.00;96692.59;5037905;28;20220;-71
2023/01/01 00:43:02;;;;;;;119.20;46.83;;;;;;;9.18;100.00;96693.81;5036250;28;21206;-71
2023/01/01 00:45:29;;;;;;;123.17;45.33;;;;;;;9.39;100.00;96691.59;5037315;28;20673;-69
2023/01/01 00:47:55;;;;;;;118.20;44.00;;;;;;;9.48;100.00;96694.13;5036690;28;20201;-71
2023/01/01 00:50:23;;;;;;;116.77;43.73;;;;;;;9.67;100.00;96683.31;5035921;28;20231;-69
2023/01/01 00:52:50;;;;;;;113.57;40.43;;;;;;;9.84;100.00;96690.28;5036568;28;20208;-70
2023/01/01 00:55:17;;;;;;;98.57;39.37;;;;;;;9.89;100.00;96688.78;5036027;28;20279;-70
2023/01/01 00:57:44;;;;;;;96.33;37.67;;;;;;;9.99;100.00;96688.66;5037498;28;20213;-70
2023/01/01 01:00:12;;;;;;;95.70;38.23;;;;;;;10.09;100.00;96684.06;5037672;28;20720;-70
2023/01/01 01:02:38;;;;;;;98.33;40.27;;;;;;;10.11;100.00;96685.56;5038474;28;20248;-71
2023/01/01 01:05:06;;;;;;;92.50;37.33;;;;;;;10.19;100.00;96688.19;5037333;28;20209;-68
2023/01/01 01:07:35;;;;;;;101.60;38.67;;;;;;;10.29;100.00;96691.50;5038123;28;20220;-71
2023/01/01 01:10:04;;;;;;;95.33;37.37;;;;;;;10.29;100.00;96698.59;5037765;28;20221;-70
2023/01/01 01:12:33;;;;;;;84.07;34.87;;;;;;;10.27;100.00;96693.47;5036997;28;20209;-69
2023/01/01 01:14:59;;;;;;;84.00;34.57;;;;;;;10.21;100.00;96688.88;5037122;28;20197;-71
2023/01/01 01:17:26;;;;;;;85.13;33.80;;;;;;;10.27;100.00;96685.56;5038065;28;20206;-69
2023/01/01 01:19:52;;;;;;;78.13;32.67;;;;;;;10.39;100.00;96692.97;5037658;28;20221;-71
2023/01/01 01:22:19;;;;;;;77.10;30.80;;;;;;;10.48;100.00;96678.00;5037548;28;20211;-72
2023/01/01 01:24:46;;;;;;;79.80;30.60;;;;;;;10.62;100.00;96677.34;5037240;28;20220;-70
2023/01/01 01:27:14;;;;;;;78.10;30.33;;;;;;;10.68;100.00;96687.19;5037740;28;20205;-69
2023/01/01 01:29:40;;;;;;;80.43;30.90;;;;;;;10.54;100.00;96675.53;5037570;28;20221;-69
2023/01/01 01:32:07;;;;;;;79.00;28.90;;;;;;;10.57;100.00;96680.44;5037111;28;20697;-71
2023/01/01 01:34:33;;;;;;;77.63;30.17;;;;;;;10.54;100.00;96683.44;5037227;28;20197;-70
2023/01/01 01:36:59;;;;;;;76.47;30.77;;;;;;;10.51;100.00;96686.41;5037354;28;20860;-70
2023/01/01 01:39:26;;;;;;;74.60;30.83;;;;;;;10.49;100.00;96683.09;5037176;28;20594;-71
2023/01/01 01:41:53;;;;;;;91.80;32.53;;;;;;;10.50;100.00;96683.91;5037772;28;20213;-70
2023/01/01 01:44:50;;;;;;;87.10;32.37;;;;;;;10.71;100.00;96687.69;5036103;28;20221;-71
2023/01/01 01:47:20;;;;;;;81.40;31.13;;;;;;;10.55;100.00;96697.41;5038016;28;20231;-70
2023/01/01 01:49:48;;;;;;;74.03;30.07;;;;;;;10.48;100.00;96684.06;5037129;28;20223;-71
2023/01/01 01:52:15;;;;;;;68.77;29.73;;;;;;;10.41;100.00;96683.09;5036655;28;20216;-71
2023/01/01 01:54:42;;;;;;;70.50;28.97;;;;;;;10.53;100.00;96678.31;5036396;28;20680;-71
2023/01/01 01:57:11;;;;;;;65.23;27.97;;;;;;;10.55;100.00;96692.16;5037936;28;20217;-71
2023/01/01 01:59:42;;;;;;;72.57;29.60;;;;;;;10.50;100.00;96683.91;5036845;28;20236;-71
2023/01/01 02:02:18;;;;;;;67.07;27.77;;;;;;;10.53;100.00;96681.78;5036973;28;20216;-71
2023/01/01 02:04:45;;;;;;;68.30;27.80;;;;;;;10.41;100.00;96679.63;5035090;28;20228;-69
2023/01/01 02:07:14;;;;;;;58.03;24.57;;;;;;;10.43;100.00;96680.31;5037142;28;20208;-69
2023/01/01 02:09:41;;;;;;;56.83;25.00;;;;;;;10.31;100.00;96675.53;5036685;28;20216;-71
2023/01/01 02:12:07;;;;;;;54.87;21.97;;;;;;;10.32;100.00;96685.06;5037195;28;20205;-71
2023/01/01 02:14:34;;;;;;;50.00;21.57;;;;;;;10.25;100.00;96684.91;5036186;28;20255;-71
2023/01/01 02:17:06;;;;;;;48.33;20.47;;;;;;;10.30;100.00;96669.44;5036384;28;20616;-71
2023/01/01 02:19:55;;;;;;;46.40;21.00;;;;;;;10.41;100.00;96667.31;5036914;28;20221;-71
2023/01/01 02:22:31;;;;;;;55.00;21.67;;;;;;;10.32;100.00;96667.44;5036620;28;20220;-69
2023/01/01 02:25:10;;;;;;;53.67;22.03;;;;;;;10.32;100.00;96674.53;5035813;28;20359;-71
2023/01/01 02:27:49;;;;;;;59.50;25.03;;;;;;;10.11;100.00;96676.84;5036843;28;20201;-70
2023/01/01 02:30:18;;;;;;;58.70;24.53;;;;;;;10.01;100.00;96687.50;5036290;28;20239;-70
2023/01/01 02:32:48;;;;;;;66.53;25.73;;;;;;;9.93;100.00;96681.41;5036188;28;20216;-71
2023/01/01 02:35:34;;;;;;;60.83;25.30;;;;;;;9.86;100.00;96677.75;5035705;28;20681;-70
2023/01/01 02:38:10;;;;;;;60.33;25.37;;;;;;;9.74;100.00;96695.66;5036458;28;20205;-70
2023/01/01 02:40:41;;;;;;;102.50;35.67;;;;;;;9.73;100.00;96691.38;5036583;28;20223;-70
2023/01/01 02:43:07;;;;;;;85.37;31.90;;;;;;;9.64;100.00;96688.09;5036478;28;20604;-71
2023/01/01 02:45:35;;;;;;;81.23;30.43;;;;;;;9.68;100.00;96707.81;5035810;28;20205;-71
2023/01/01 02:48:06;;;;;;;82.17;27.40;;;;;;;9.76;100.00;96708.66;5036486;28;20210;-71
2023/01/01 02:50:34;;;;;;;67.37;27.70;;;;;;;9.71;100.00;96706.50;5036097;28;20243;-70
2023/01/01 02:53:09;;;;;;;60.83;26.83;;;;;;;9.75;100.00;96701.78;5036572;28;20197;-72
2023/01/01 02:55:52;;;;;;;66.73;27.53;;;;;;;9.80;100.00;96705.56;5036214;28;20200;-71
2023/01/01 03:01:20;;;;;;;61.57;23.67;;;;;;;9.67;100.00;96700.91;5036803;28;20240;-70
2023/01/01 03:03:55;;;;;;;57.33;22.47;;;;;;;9.68;100.00;96701.56;5035394;28;20221;-71
2023/01/01 03:06:27;;;;;;;52.63;22.57;;;;;;;9.66;100.00;96692.19;5036205;28;20205;-69
2023/01/01 03:09:03;;;;;;;52.33;21.67;;;;;;;9.62;100.00;96688.22;5036854;28;20205;-69
2023/01/01 03:11:40;;;;;;;49.67;20.87;;;;;;;9.59;100.00;96691.19;5036520;28;20200;-71
2023/01/01 03:14:18;;;;;;;53.33;21.03;;;;;;;9.58;100.00;96696.59;5035423;28;20205;-71
2023/01/01 03:16:50;;;;;;;51.50;21.13;;;;;;;9.58;100.00;96700.03;5038264;28;20207;-71
2023/01/01 03:19:20;;;;;;;58.20;21.60;;;;;;;9.58;100.00;96699.22;5038719;28;20229;-70
2023/01/01 03:21:50;;;;;;;52.03;22.20;;;;;;;9.57;100.00;96694.94;5040267;28;20212;-71
2023/01/01 03:24:23;;;;;;;61.57;23.40;;;;;;;9.61;100.00;96694.50;5039681;28;20311;-71
2023/01/01 03:26:54;;;;;;;56.80;21.87;;;;;;;9.58;100.00;96707.13;5040192;28;20714;-70
2023/01/01 03:29:23;;;;;;;58.33;22.37;;;;;;;9.69;100.00;96703.22;5039747;28;20220;-70
2023/01/01 03:31:55;;;;;;;55.43;21.00;;;;;;;9.77;100.00;96707.69;5040188;28;20201;-70
2023/01/01 03:34:28;;;;;;;44.50;19.10;;;;;;;9.84;100.00;96696.34;5039160;28;20255;-70
2023/01/01 03:36:58;;;;;;;51.13;20.70;;;;;;;9.95;100.00;96701.31;5040009;28;20200;-70
2023/01/01 03:39:29;;;;;;;51.83;21.10;;;;;;;10.02;100.00;96704.97;5040223;28;20233;-71
2023/01/01 03:42:02;;;;;;;49.23;20.27;;;;;;;9.96;100.00;96713.50;5039530;28;20209;-70
2023/01/01 03:44:33;;;;;;;47.27;20.10;;;;;;;10.01;100.00;96702.50;5038844;28;20228;-70
2023/01/01 03:47:03;;;;;;;50.97;19.70;;;;;;;9.97;100.00;96701.19;5039643;28;20201;-71
2023/01/01 03:49:30;;;;;;;43.50;18.07;;;;;;;9.97;100.00;96702.00;5039412;28;20225;-70
2023/01/01 03:52:07;;;;;;;42.40;17.90;;;;;;;10.06;100.00;96716.81;5039478;28;20201;-70
2023/01/01 03:54:42;;;;;;;43.87;18.17;;;;;;;10.01;100.00;96708.59;5038535;28;20677;-71
2023/01/01 03:57:19;;;;;;;43.37;17.97;;;;;;;10.01;100.00;96698.03;5039408;28;20223;-70
2023/01/01 03:59:53;;;;;;;39.90;16.83;;;;;;;10.01;100.00;96700.69;5039483;28;20228;-71
2023/01/01 04:02:25;;;;;;;38.90;16.73;;;;;;;10.00;100.00;96709.56;5039519;28;20228;-70
2023/01/01 04:04:51;;;;;;;45.00;18.23;;;;;;;9.81;100.00;96707.22;5038071;28;20217;-69
2023/01/01 04:07:18;;;;;;;39.63;16.83;;;;;;;9.80;100.00;96718.72;5038848;28;21017;-69
2023/01/01 04:09:49;;;;;;;46.33;17.50;;;;;;;9.88;100.00;96717.91;5039708;28;20718;-69
2023/01/01 04:12:16;;;;;;;33.13;15.17;;;;;;;9.74;100.00;96716.72;5039374;28;20209;-71
2023/01/01 04:14:43;;;;;;;37.87;16.00;;;;;;;9.80;100.00;96715.25;5037826;28;20201;-71
2023/01/01 04:17:12;;;;;;;41.70;14.97;;;;;;;9.84;100.00;96712.13;5039084;28;20674;-71
2023/01/01 04:19:40;;;;;;;34.63;14.90;;;;;;;9.82;100.00;96708.84;5039416;28;20224;-70
2023/01/01 04:22:06;;;;;;;37.03;15.50;;;;;;;9.73;100.00;96715.06;5038945;28;20205;-71
2023/01/01 04:24:33;;;;;;;35.00;14.07;;;;;;;9.69;100.00;96712.91;5037943;28;20233;-70
2023/01/01 04:26:59;;;;;;;38.07;15.40;;;;;;;9.85;100.00;96713.78;5039172;28;20214;-70
2023/01/01 04:29:26;;;;;;;36.13;15.23;;;;;;;9.87;100.00;96713.63;5038043;28;20224;-71
2023/01/01 04:31:52;;;;;;;32.47;14.67;;;;;;;9.87;100.00;96714.44;5038382;28;20209;-70
2023/01/01 04:34:19;;;;;;;36.53;15.33;;;;;;;9.88;100.00;96723.19;5037961;28;21162;-69
2023/01/01 04:36:46;;;;;;;33.83;12.87;;;;;;;9.98;100.00;96729.97;5039101;28;20217;-70
2023/01/01 04:39:13;;;;;;;32.93;12.63;;;;;;;10.02;100.00;96715.50;5038644;28;20210;-71
2023/01/01 04:41:39;;;;;;;31.33;13.33;;;;;;;10.03;100.00;96716.31;5038883;28;20205;-70
2023/01/01 04:44:06;;;;;;;31.77;13.13;;;;;;;10.10;100.00;96714.69;5037855;28;20239;-70
2023/01/01 04:46:32;;;;;;;26.83;11.63;;;;;;;10.20;100.00;96713.53;5038172;28;20216;-71
2023/01/01 04:48:59;;;;;;;24.73;11.57;;;;;;;10.19;100.00;96717.16;5038713;28;20216;-70
2023/01/01 04:51:25;;;;;;;26.87;12.27;;;;;;;10.20;100.00;96718.00;5038364;28;20209;-70
2023/01/01 04:53:53;;;;;;;29.17;12.20;;;;;;;10.34;100.00;96726.88;5037572;28;20205;-70
2023/01/01 04:56:21;;;;;;;26.93;11.90;;;;;;;10.31;100.00;96718.50;5038292;28;20700;-71
2023/01/01 04:58:49;;;;;;;33.80;11.73;;;;;;;10.40;100.00;96722.78;5038903;28;20209;-69
2023/01/01 05:01:18;;;;;;;28.57;11.60;;;;;;;10.37;100.00;96731.00;5037991;28;20231;-70
2023/01/01 05:03:45;;;;;;;32.27;12.60;;;;;;;10.29;100.00;96724.94;5037186;28;20205;-70
2023/01/01 05:06:13;;;;;;;27.67;11.60;;;;;;;10.21;100.00;96722.25;5038374;28;20209;-70
2023/01/01 05:08:41;;;;;;;28.83;12.57;;;;;;;10.09;100.00;96724.38;5038323;28;20216;-71
2023/01/01 05:11:11;;;;;;;28.37;11.80;;;;;;;10.19;100.00;96722.44;5038093;28;20228;-71
2023/01/01 05:13:39;;;;;;;30.67;12.87;;;;;;;10.12;100.00;96725.88;5037326;28;20646;-71
2023/01/01 05:16:07;;;;;;;37.53;14.40;;;;;;;10.18;100.00;96725.22;5038229;28;20205;-70
2023/01/01 05:18:34;;;;;;;26.73;12.20;;;;;;;10.12;100.00;96721.44;5037556;28;20669;-70
2023/01/01 05:21:01;;;;;;;35.20;12.97;;;;;;;10.13;100.00;96728.38;5038061;28;20225;-70
2023/01/01 05:23:28;;;;;;;31.70;12.17;;;;;;;10.12;100.00;96721.44;5038034;28;20299;-71
2023/01/01 05:25:55;;;;;;;34.90;13.20;;;;;;;10.08;100.00;96730.66;5036679;28;20720;-71
2023/01/01 05:28:23;;;;;;;28.60;11.90;;;;;;;10.14;100.00;96730.00;5037279;28;20205;-69
2023/01/01 05:30:50;;;;;;;32.23;12.83;;;;;;;10.05;100.00;96730.16;5038787;28;20304;-70
2023/01/01 05:33:17;;;;;;;30.50;13.03;;;;;;;10.00;100.00;96732.44;5037716;28;20201;-71
2023/01/01 05:35:44;;;;;;;31.73;12.30;;;;;;;9.90;100.00;96740.47;5036245;28;20212;-71
2023/01/01 05:38:10;;;;;;;35.10;12.80;;;;;;;9.87;100.00;96743.41;5037645;28;20217;-71
2023/01/01 05:40:38;;;;;;;31.50;12.60;;;;;;;9.89;100.00;96741.44;5037688;28;20233;-71
2023/01/01 05:43:05;;;;;;;33.73;14.00;;;;;;;9.56;100.00;96759.06;5037151;28;20205;-70
2023/01/01 05:45:32;;;;;;;32.30;12.47;;;;;;;9.60;100.00;96763.88;5036850;28;20248;-69
2023/01/01 05:47:59;;;;;;;30.50;12.80;;;;;;;9.53;100.00;96770.72;5037928;28;20200;-70
2023/01/01 05:50:25;;;;;;;30.40;11.43;;;;;;;9.08;100.00;96781.69;5036653;28;20238;-71
2023/01/01 05:52:52;;;;;;;30.97;13.17;;;;;;;9.06;100.00;96781.81;5037480;28;20201;-71
2023/01/01 05:55:18;;;;;;;36.63;14.23;;;;;;;9.04;100.00;96794.31;5036560;28;20700;-71
2023/01/01 05:57:45;;;;;;;35.50;13.73;;;;;;;8.99;100.00;96796.56;5037077;28;20231;-71
2023/01/01 06:00:12;;;;;;;29.10;13.40;;;;;;;9.05;100.00;96795.09;5037402;28;20232;-70
2023/01/01 06:02:40;;;;;;;36.07;14.10;;;;;;;9.00;100.00;96802.63;5036988;28;20209;-71
2023/01/01 06:05:07;;;;;;;32.50;13.17;;;;;;;8.85;100.00;96807.63;5036425;28;20221;-70
2023/01/01 06:07:33;;;;;;;38.73;14.07;;;;;;;8.83;100.00;96806.94;5036907;28;20221;-70
2023/01/01 06:10:00;;;;;;;29.00;12.60;;;;;;;8.93;100.00;96802.44;5036662;28;20221;-71
2023/01/01 06:12:26;;;;;;;31.70;12.03;;;;;;;8.95;100.00;96800.47;5037017;28;20733;-70
2023/01/01 06:14:53;;;;;;;30.23;12.77;;;;;;;9.03;100.00;96792.66;5036223;28;20658;-71
2023/01/01 06:17:19;;;;;;;33.73;13.77;;;;;;;9.05;100.00;96793.31;5036895;28;20231;-71
2023/01/01 06:19:47;;;;;;;32.97;12.33;;;;;;;9.31;100.00;96791.50;5036873;28;20225;-71
2023/01/01 06:22:13;;;;;;;30.20;13.13;;;;;;;9.30;100.00;96792.47;5036960;28;20209;-70
2023/01/01 06:24:40;;;;;;;30.97;12.43;;;;;;;9.39;100.00;96788.91;5035942;28;20221;-71
2023/01/01 06:27:06;;;;;;;38.13;13.60;;;;;;;9.38;100.00;96797.78;5036772;28;20213;-70
2023/01/01 06:29:33;;;;;;;38.73;13.80;;;;;;;9.48;100.00;96798.50;5036773;28;20255;-71
2023/01/01 06:31:59;;;;;;;32.00;12.50;;;;;;;9.45;100.00;96801.44;5036580;28;20212;-69
2023/01/01 06:34:26;;;;;;;29.73;12.93;;;;;;;9.53;100.00;96796.22;5036305;28;20205;-69
2023/01/01 06:36:54;;;;;;;32.47;12.33;;;;;;;9.71;100.00;96801.25;5036662;28;20212;-69
2023/01/01 06:39:20;;;;;;;29.47;12.37;;;;;;;9.66;100.00;96807.97;5035898;28;20229;-70
2023/01/01 06:41:46;;;;;;;31.57;13.07;;;;;;;9.72;100.00;96802.06;5036386;28;20729;-69
2023/01/01 06:44:13;;;;;;;31.87;12.17;;;;;;;9.79;100.00;96805.72;5036983;28;20597;-69
2023/01/01 06:46:39;;;;;;;31.50;13.07;;;;;;;9.74;100.00;96806.19;5036114;28;20209;-70
2023/01/01 06:49:09;;;;;;;26.60;11.83;;;;;;;9.75;100.00;96802.59;5036226;28;20224;-69
2023/01/01 06:51:38;;;;;;;39.73;13.90;;;;;;;9.75;100.00;96807.03;5038252;28;20197;-68
2023/01/01 06:54:07;;;;;;;48.87;14.50;;;;;;;9.68;100.00;96806.81;5040279;28;20212;-70
2023/01/01 06:56:34;;;;;;;50.33;14.97;;;;;;;9.56;100.00;96811.69;5040317;28;20219;-69
2023/01/01 06:59:01;;;;;;;48.07;14.97;;;;;;;9.52;100.00;96805.09;5040210;28;20205;-70
2023/01/01 07:01:30;;;;;;;38.60;14.73;;;;;;;9.51;100.00;96808.69;5040286;28;20226;-70
2023/01/01 07:03:58;;;;;;;32.23;12.87;;;;;;;9.53;100.00;96809.38;5039487;28;20201;-69
2023/01/01 07:06:27;;;;;;;30.50;12.50;;;;;;;9.51;100.00;96819.22;5040485;28;20228;-69
2023/01/01 07:08:53;;;;;;;29.43;11.87;;;;;;;9.44;100.00;96819.03;5040615;28;20251;-70
2023/01/01 07:11:22;;;;;;;33.57;13.17;;;;;;;9.44;100.00;96813.75;5040093;28;20558;-70
2023/01/01 07:13:48;;;;;;;28.30;11.87;;;;;;;9.38;100.00;96818.81;5040067;28;20204;-69
2023/01/01 07:16:15;;;;;;;26.10;12.47;;;;;;;9.39;100.00;96825.75;5040243;28;20212;-70
2023/01/01 07:18:42;;;;;;;30.67;11.70;;;;;;;9.41;100.00;96827.22;5039908;28;20212;-70
2023/01/01 07:21:26;;;;;;;26.60;11.17;;;;;;;9.57;100.00;96829.97;5039882;28;20232;-70
2023/01/01 07:23:55;;;;;;;26.47;11.23;;;;;;;9.45;100.00;96835.66;5039591;28;20583;-70
2023/01/01 07:26:23;;;;;;;26.80;11.27;;;;;;;9.50;100.00;96838.66;5039730;28;20229;-70
2023/01/01 07:28:49;;;;;;;26.53;11.10;;;;;;;9.40;100.00;96845.81;5040675;28;20815;-70
2023/01/01 07:31:16;;;;;;;25.67;10.77;;;;;;;9.32;100.00;96849.22;5040033;28;20262;-68
2023/01/01 07:33:42;;;;;;;28.60;11.07;;;;;;;9.38;100.00;96853.84;5039201;28;20197;-71
2023/01/01 07:36:09;;;;;;;28.37;11.70;;;;;;;9.42;100.00;96852.56;5039933;28;20194;-71
2023/01/01 07:38:36;;;;;;;23.80;10.33;;;;;;;9.30;100.00;96856.41;5040147;28;20206;-71
2023/01/01 07:41:02;;;;;;;24.27;10.77;;;;;;;9.37;100.00;96867.16;5038368;28;20884;-72
2023/01/01 07:43:30;;;;;;;24.03;10.97;;;;;;;9.49;100.00;96868.56;5036554;28;20240;-70
2023/01/01 07:45:57;;;;;;;27.83;12.03;;;;;;;9.43;100.00;96863.91;5037935;28;20221;-71
2023/01/01 07:48:24;;;;;;;27.20;11.17;;;;;;;9.39;100.00;96870.44;5039257;28;20205;-71
2023/01/01 07:50:51;;;;;;;34.13;11.90;;;;;;;9.26;100.00;96868.22;5038841;28;20227;-71
2023/01/01 07:53:17;;;;;;;25.67;11.77;;;;;;;9.34;100.00;96862.19;5039905;28;20216;-70
2023/01/01 07:55:45;;;;;;;24.90;12.20;;;;;;;9.39;100.00;96862.56;5038777;28;20203;-70
2023/01/01 07:58:12;;;;;;;29.23;12.80;;;;;;;9.46;100.00;96868.88;5038832;28;20213;-69
2023/01/01 08:00:40;;;;;;;28.53;11.17;;;;;;;9.50;100.00;96865.75;5039705;28;20221;-69
2023/01/01 08:03:06;;;;;;;27.47;11.40;;;;;;;9.37;100.00;96875.88;5039673;28;20208;-69
2023/01/01 08:05:34;;;;;;;29.93;12.37;;;;;;;9.48;100.00;96877.41;5037745;28;20374;-70
2023/01/01 08:08:01;;;;;;;26.87;11.43;;;;;;;10.12;100.00;96881.25;5038898;28;20201;-69
2023/01/01 08:10:27;;;;;;;33.77;12.50;;;;;;;10.86;100.00;96885.56;5040124;28;20225;-71
2023/01/01 08:12:59;;;;;;;27.87;11.53;;;;;;;11.47;100.00;96870.88;5038701;28;20201;-70
2023/01/01 08:15:25;;;;;;;30.87;12.13;;;;;;;11.68;100.00;96877.31;5038767;28;20589;-70
2023/01/01 08:17:57;;;;;;;35.17;12.80;;;;;;;11.39;100.00;96878.81;5038821;28;20208;-70
2023/01/01 08:20:24;;;;;;;30.60;12.63;;;;;;;11.13;100.00;96884.25;5038667;28;20252;-70
2023/01/01 08:22:50;;;;;;;30.40;12.33;;;;;;;10.87;100.00;96881.94;5038348;28;20696;-70
2023/01/01 08:25:17;;;;;;;31.13;11.33;;;;;;;10.68;100.00;96883.06;5038339;28;20221;-70
2023/01/01 08:27:43;;;;;;;26.97;10.33;;;;;;;10.60;100.00;96880.44;5038872;28;20694;-69
2023/01/01 08:30:12;;;;;;;20.87;8.73;;;;;;;10.77;100.00;96876.81;5038589;28;20229;-69
2023/01/01 08:32:38;;;;;;;24.40;10.20;;;;;;;10.83;100.00;96862.16;5038719;28;20657;-70
2023/01/01 08:35:08;;;;;;;39.73;13.17;;;;;;;11.15;100.00;96860.34;5038077;28;20681;-70
2023/01/01 08:37:34;;;;;;;29.10;10.63;;;;;;;11.15;100.00;96858.56;5038556;28;20212;-70
2023/01/01 08:40:01;;;;;;;22.87;9.80;;;;;;;11.15;100.00;96871.75;5039006;28;20283;-71
2023/01/01 08:42:27;;;;;;;18.00;7.93;;;;;;;11.26;100.00;96868.75;5039691;28;20209;-71
2023/01/01 08:44:54;;;;;;;15.27;7.17;;;;;;;11.47;100.00;96876.16;5038376;28;20589;-71
2023/01/01 08:47:22;;;;;;;15.13;7.10;;;;;;;11.74;100.00;96872.19;5038628;28;20216;-71
2023/01/01 08:49:49;;;;;;;12.00;5.40;;;;;;;12.05;100.00;96872.25;5038974;28;20228;-71
2023/01/01 08:52:17;;;;;;;12.20;5.63;;;;;;;12.25;100.00;96869.03;5038972;28;20201;-71
2023/01/01 08:54:44;;;;;;;10.90;4.87;;;;;;;12.32;100.00;96877.91;5037797;28;20205;-70
2023/01/01 08:57:11;;;;;;;12.60;5.90;;;;;;;12.55;98.44;96871.72;5037711;28;20217;-69
2023/01/01 08:59:38;;;;;;;13.27;5.57;;;;;;;12.66;97.46;96873.94;5037673;28;20759;-70
2023/01/01 09:02:05;;;;;;;9.93;5.53;;;;;;;12.73;96.95;96880.19;5037888;28;20198;-68
2023/01/01 09:04:31;;;;;;;12.10;4.97;;;;;;;12.90;96.35;96884.41;5036272;28;20288;-70
2023/01/01 09:06:58;;;;;;;12.37;5.57;;;;;;;12.99;95.93;96881.53;5038062;28;20252;-70
2023/01/01 09:09:26;;;;;;;12.23;4.90;;;;;;;13.07;95.06;96891.22;5037998;28;20224;-69
2023/01/01 09:11:53;;;;;;;13.20;5.57;;;;;;;13.27;94.31;96889.75;5037758;28;20201;-68
2023/01/01 09:14:20;;;;;;;14.20;5.18;;;;;;;13.23;94.39;96897.22;5037109;28;20215;-70
2023/01/01 09:16:47;;;;;;;10.33;5.73;;;;;;;13.26;94.61;96894.22;5037755;28;21254;-69
2023/01/01 09:19:13;;;;;;;10.67;5.10;;;;;;;13.32;94.11;96898.00;5037423;28;20244;-70
2023/01/01 09:21:40;;;;;;;12.03;5.10;;;;;;;13.42;93.42;96899.41;5037775;28;20209;-71
2023/01/01 09:24:07;;;;;;;12.07;5.20;;;;;;;13.55;93.22;96894.31;5038234;28;20221;-70
2023/01/01 09:26:35;;;;;;;12.20;5.53;;;;;;;13.66;92.97;96896.53;5036980;28;20229;-70
2023/01/01 09:29:01;;;;;;;13.55;5.10;;;;;;;13.49;92.62;96900.31;5037446;28;20205;-70
2023/01/01 09:31:28;;;;;;;10.35;5.03;;;;;;;13.76;92.03;96902.38;5037732;28;20223;-71
2023/01/01 09:33:54;;;;;;;8.93;4.45;;;;;;;13.67;92.76;96904.31;5035540;28;20855;-72
2023/01/01 09:36:28;;;;;;;14.23;4.93;;;;;;;14.15;92.62;96903.81;5036780;28;20216;-72
2023/01/01 09:38:55;;;;;;;10.55;4.57;;;;;;;14.36;94.90;96893.31;5037662;28;20197;-71
2023/01/01 09:41:30;;;;;;;11.32;4.65;;;;;;;14.57;90.76;96901.34;5037209;28;20233;-71
2023/01/01 09:44:09;;;;;;;12.70;4.50;;;;;;;14.64;88.70;96898.56;5036510;28;20208;-71
2023/01/01 09:46:36;;;;;;;8.73;4.30;;;;;;;14.52;90.57;96901.88;5036872;28;20221;-71
2023/01/01 09:49:06;;;;;;;14.85;4.78;;;;;;;14.63;89.03;96907.53;5036934;28;20204;-71
2023/01/01 09:51:36;;;;;;;8.98;4.22;;;;;;;14.70;87.48;96892.53;5036082;28;20212;-71
2023/01/01 09:54:12;;;;;;;12.95;5.38;;;;;;;14.67;89.17;96900.03;5036021;28;20217;-71
2023/01/01 09:56:40;;;;;;;10.90;4.63;;;;;;;14.71;87.24;96899.50;5037063;28;20592;-71
2023/01/01 09:59:10;;;;;;;9.93;4.90;;;;;;;14.72;87.79;96902.94;5037208;28;20205;-70
2023/01/01 10:01:46;;;;;;;13.13;5.03;;;;;;;14.81;87.67;96886.72;5038537;28;20223;-71
2023/01/01 10:04:28;;;;;;;11.15;4.93;;;;;;;14.70;87.67;96897.84;5037651;28;20207;-71
2023/01/01 10:07:09;;;;;;;8.90;4.40;;;;;;;14.68;87.95;96897.19;5037037;28;20217;-72
2023/01/01 10:09:46;;;;;;;11.52;4.32;;;;;;;14.51;88.45;96889.66;5036558;28;20237;-72
2023/01/01 10:12:19;;;;;;;8.73;3.90;;;;;;;14.65;88.81;96886.16;5037044;28;20204;-72
2023/01/01 10:14:50;;;;;;;8.68;4.60;;;;;;;14.67;88.71;96884.91;5036859;28;20233;-72
2023/01/01 10:17:21;;;;;;;8.10;3.30;;;;;;;14.73;87.44;96884.19;5036881;28;20205;-71
2023/01/01 10:19:50;;;;;;;14.73;4.57;;;;;;;14.75;86.90;96881.34;5040330;28;20224;-71
2023/01/01 10:22:23;;;;;;;9.98;4.38;;;;;;;14.81;86.51;96878.75;5040167;28;20662;-71
2023/01/01 10:24:55;;;;;;;7.22;3.78;;;;;;;14.93;87.00;96869.31;5040659;28;20189;-71
2023/01/01 10:27:29;;;;;;;7.38;4.15;;;;;;;14.82;88.15;96869.00;5040021;28;20221;-71
2023/01/01 10:29:57;;;;;;;9.38;4.50;;;;;;;14.86;87.87;96870.25;5041731;28;21116;-71
2023/01/01 10:32:28;;;;;;;14.93;4.68;;;;;;;15.03;87.04;96863.69;5041107;28;20208;-71
2023/01/01 10:34:57;;;;;;;14.57;5.93;;;;;;;14.91;87.95;96881.94;5041142;28;20291;-72
2023/01/01 10:37:24;;;;;;;10.40;5.05;;;;;;;14.97;87.01;96865.28;5041076;28;20204;-71
2023/01/01 10:39:50;;;;;;;14.02;6.03;;;;;;;15.09;88.03;96877.03;5040839;28;20221;-71
2023/01/01 10:42:17;;;;;;;9.80;4.25;;;;;;;15.16;86.40;96872.63;5041429;28;20213;-71
2023/01/01 10:44:44;;;;;;;9.82;4.18;;;;;;;15.15;86.61;96870.13;5041190;28;20206;-71
2023/01/01 10:47:29;;;;;;;11.15;4.55;;;;;;;15.34;84.55;96857.09;5040906;28;20221;-71
2023/01/01 10:49:59;;;;;;;13.48;6.15;;;;;;;15.37;85.60;96860.16;5041096;28;20237;-71
2023/01/01 10:52:30;;;;;;;16.27;6.45;;;;;;;15.54;84.71;96864.22;5041515;28;20201;-71
2023/01/01 10:54:57;;;;;;;18.83;6.60;;;;;;;15.54;84.57;96861.56;5040701;28;20200;-71
2023/01/01 10:57:31;;;;;;;26.75;10.38;;;;;;;15.54;85.10;96858.06;5039877;28;20235;-71
2023/01/01 11:00:12;;;;;;;61.78;22.58;;;;;;;15.68;83.75;96854.50;5039149;28;20248;-71
2023/01/01 11:02:40;;;;;;;17.92;6.68;;;;;;;15.48;84.42;96848.22;5039415;28;20201;-71
2023/01/01 11:05:14;;;;;;;12.60;5.53;;;;;;;15.41;84.72;96858.78;5040757;28;20205;-71
2023/01/01 11:07:42;;;;;;;8.98;4.40;;;;;;;15.28;84.58;96847.22;5040023;28;20222;-71
2023/01/01 11:10:17;;;;;;;9.90;3.58;;;;;;;15.25;83.72;96853.72;5039520;28;20225;-71
2023/01/01 11:12:43;;;;;;;11.73;5.00;;;;;;;15.16;84.50;96847.88;5040080;28;20231;-71
2023/01/01 11:15:22;;;;;;;7.78;3.90;;;;;;;15.23;83.41;96839.00;5038641;28;20201;-71
2023/01/01 11:17:49;;;;;;;8.70;3.53;;;;;;;15.03;84.44;96837.16;5039933;28;20205;-71
2023/01/01 11:20:19;;;;;;;13.18;4.90;;;;;;;15.09;84.99;96831.91;5038399;28;20657;-71
2023/01/01 11:22:49;;;;;;;10.57;5.03;;;;;;;15.15;84.96;96835.63;5039660;28;20205;-71
2023/01/01 11:25:19;;;;;;;10.85;5.18;;;;;;;15.16;85.30;96837.25;5039517;28;20205;-71
2023/01/01 11:27:46;;;;;;;10.45;4.63;;;;;;;15.17;85.34;96839.72;5038819;28;20225;-71